createdAt,value
2022-08-09T00:00:04.574Z,20.98
2022-08-09T00:02:49.301Z,21.05
2022-08-09T00:06:19.384Z,20.95
2022-08-09T00:08:12.944Z,20.50
2022-08-09T00:11:05.755Z,20.98
2022-08-09T00:13:43.260Z,20.70
2022-08-09T00:16:12.813Z,20.58
2022-08-09T00:18:41.076Z,21.15
2022-08-09T00:21:09.303Z,21.55
2022-08-09T00:23:55.257Z,21.30
2022-08-09T00:26:32.165Z,21.20
2022-08-09T00:29:03.565Z,21.73
2022-08-09T00:31:58.320Z,21.17
2022-08-09T00:34:26.257Z,21.23
2022-08-09T00:36:53.217Z,21.20
2022-08-09T00:40:12.362Z,20.27
2022-08-09T00:44:10.359Z,20.83
2022-08-09T00:44:55.516Z,20.92
2022-08-09T00:47:24.746Z,20.13
2022-08-09T00:49:52.643Z,20.80
2022-08-09T00:52:22.799Z,20.55
2022-08-09T00:55:01.420Z,20.15
2022-08-09T00:57:34.256Z,20.55
2022-08-09T01:00:21.859Z,20.50
2022-08-09T01:03:17.054Z,20.60
2022-08-09T01:05:55.009Z,21.23
2022-08-09T01:08:54.308Z,20.58
2022-08-09T01:11:55.491Z,19.92
2022-08-09T01:14:28.882Z,20.00
2022-08-09T01:17:02.474Z,20.10
2022-08-09T01:20:01.851Z,19.53
2022-08-09T01:22:41.789Z,20.40
2022-08-09T01:25:26.993Z,20.48
2022-08-09T01:27:57.099Z,20.40
2022-08-09T01:30:35.711Z,19.98
2022-08-09T01:33:16.890Z,20.67
2022-08-09T01:35:57.805Z,20.35
2022-08-09T01:38:30.348Z,21.60
2022-08-09T01:41:13.817Z,20.48
2022-08-09T01:43:50.657Z,20.88
2022-08-09T01:46:43.220Z,20.60
2022-08-09T01:49:17.235Z,20.25
2022-08-09T01:51:54.344Z,20.08
2022-08-09T01:54:39.407Z,20.95
2022-08-09T02:00:34.707Z,20.83
2022-08-09T02:03:02.869Z,19.98
2022-08-09T02:05:38.206Z,20.52
2022-08-09T02:08:41.054Z,20.42
2022-08-09T02:11:16.838Z,19.88
2022-08-09T02:14:06.242Z,20.88
2022-08-09T02:16:53.348Z,20.92
2022-08-09T02:19:23.868Z,20.75
2022-08-09T02:21:57.736Z,21.27
2022-08-09T02:24:29.653Z,21.65
2022-08-09T02:27:01.969Z,20.50
2022-08-09T02:29:33.942Z,20.50
2022-08-09T02:32:03.748Z,20.85
2022-08-09T02:34:40.501Z,20.60
2022-08-09T02:37:17.037Z,19.83
2022-08-09T02:39:55.110Z,20.40
2022-08-09T02:42:34.858Z,20.85
2022-08-09T02:45:15.211Z,20.20
2022-08-09T02:47:57.326Z,20.75
2022-08-09T02:50:34.802Z,19.98
2022-08-09T02:53:04.941Z,19.95
2022-08-09T02:55:46.791Z,20.40
2022-08-09T02:58:37.074Z,19.75
2022-08-09T03:01:10.892Z,20.10
2022-08-09T03:04:16.677Z,22.08
2022-08-09T03:06:31.056Z,20.48
2022-08-09T03:09:01.560Z,20.08
2022-08-09T03:12:10.999Z,19.85
2022-08-09T03:14:18.157Z,21.25
2022-08-09T03:16:48.154Z,19.23
2022-08-09T03:19:52.418Z,20.60
2022-08-09T03:22:11.901Z,19.33
2022-08-09T03:24:52.090Z,20.20
2022-08-09T03:27:21.484Z,19.90
2022-08-09T03:29:57.994Z,20.95
2022-08-09T03:32:33.892Z,20.17
2022-08-09T03:35:14.745Z,21.42
2022-08-09T03:37:56.465Z,21.45
2022-08-09T03:40:25.452Z,19.80
2022-08-09T03:42:57.850Z,19.70
2022-08-09T03:46:02.936Z,19.83
2022-08-09T03:48:11.606Z,19.58
2022-08-09T03:50:45.894Z,20.10
2022-08-09T03:53:18.274Z,20.75
2022-08-09T03:55:49.323Z,20.80
2022-08-09T03:58:21.283Z,20.33
2022-08-09T04:00:49.414Z,20.35
2022-08-09T04:03:24.535Z,20.05
2022-08-09T04:06:04.606Z,21.27
2022-08-09T04:08:32.397Z,20.42
2022-08-09T04:11:02.480Z,20.45
2022-08-09T04:14:37.246Z,20.98
2022-08-09T04:16:20.171Z,21.60
2022-08-09T04:18:49.074Z,21.63
2022-08-09T04:21:18.428Z,21.48
2022-08-09T04:23:54.335Z,21.75
2022-08-09T04:26:25.186Z,21.13
2022-08-09T04:29:10.856Z,24.08
2022-08-09T04:31:47.137Z,21.98
2022-08-09T04:34:19.196Z,22.83
2022-08-09T04:36:57.837Z,22.63
2022-08-09T04:39:25.475Z,22.77
2022-08-09T04:41:59.790Z,23.25
2022-08-09T04:44:29.426Z,21.80
2022-08-09T04:47:04.536Z,21.70
2022-08-09T04:49:52.778Z,22.65
2022-08-09T04:52:27.512Z,22.30
2022-08-09T04:54:59.519Z,21.25
2022-08-09T04:57:58.731Z,21.50
2022-08-09T05:00:14.551Z,22.13
2022-08-09T05:02:44.203Z,21.73
2022-08-09T05:05:18.924Z,21.27
2022-08-09T05:07:59.352Z,21.65
2022-08-09T05:10:27.444Z,21.13
2022-08-09T05:12:54.399Z,21.98
2022-08-09T05:15:24.580Z,22.42
2022-08-09T05:18:37.737Z,21.88
2022-08-09T05:20:52.461Z,21.83
2022-08-09T05:23:59.564Z,21.45
2022-08-09T05:26:06.625Z,22.42
2022-08-09T05:28:34.561Z,23.10
2022-08-09T05:31:01.404Z,22.65
2022-08-09T05:33:36.424Z,22.05
2022-08-09T05:36:09.376Z,22.83
2022-08-09T05:38:39.084Z,22.85
2022-08-09T05:41:06.351Z,22.77
2022-08-09T05:43:45.056Z,24.42
2022-08-09T05:46:15.867Z,23.35
2022-08-09T05:48:42.600Z,24.17
2022-08-09T05:51:30.102Z,23.33
2022-08-09T05:53:57.556Z,23.55
2022-08-09T05:56:27.090Z,24.48
2022-08-09T05:59:00.086Z,23.55
2022-08-09T06:01:33.615Z,24.23
2022-08-09T06:04:09.831Z,24.30
2022-08-09T06:06:46.773Z,24.17
2022-08-09T06:09:41.064Z,24.25
2022-08-09T06:12:05.724Z,25.35
2022-08-09T06:14:34.743Z,24.67
2022-08-09T06:17:05.070Z,24.75
2022-08-09T06:19:37.043Z,24.98
2022-08-09T06:22:06.128Z,25.40
2022-08-09T06:24:41.695Z,24.75
2022-08-09T06:27:08.565Z,24.88
2022-08-09T06:29:47.973Z,24.05
2022-08-09T06:32:59.605Z,24.85
2022-08-09T06:35:10.004Z,24.38
2022-08-09T06:37:52.837Z,25.42
2022-08-09T06:40:24.962Z,23.98
2022-08-09T06:42:51.823Z,25.13
2022-08-09T06:46:04.775Z,24.27
2022-08-09T06:48:05.769Z,24.80
2022-08-09T06:50:32.550Z,25.50
2022-08-09T06:53:00.734Z,24.90
2022-08-09T06:55:31.759Z,26.15
2022-08-09T06:58:04.369Z,25.63
2022-08-09T07:00:57.090Z,25.77
2022-08-09T07:03:27.652Z,25.77
2022-08-09T07:06:03.743Z,26.33
2022-08-09T07:08:37.161Z,26.55
2022-08-09T07:11:06.865Z,26.60
2022-08-09T07:13:45.248Z,25.10
2022-08-09T07:16:42.609Z,26.45
2022-08-09T07:19:10.623Z,25.42
2022-08-09T07:21:43.320Z,25.45
2022-08-09T07:24:32.773Z,25.50
2022-08-09T07:27:11.025Z,25.95
2022-08-09T07:29:57.213Z,27.23
2022-08-09T07:32:31.817Z,26.83
2022-08-09T07:34:59.471Z,25.23
2022-08-09T07:37:26.213Z,26.52
2022-08-09T07:39:53.766Z,26.80
2022-08-09T07:42:23.983Z,25.30
2022-08-09T07:45:02.610Z,25.77
2022-08-09T07:48:00.678Z,26.83
2022-08-09T07:50:34.619Z,27.00
2022-08-09T07:53:04.690Z,28.10
2022-08-09T07:55:41.717Z,27.45
2022-08-09T07:58:21.459Z,27.45
2022-08-09T08:00:58.847Z,27.35
2022-08-09T08:03:33.453Z,27.17
2022-08-09T08:06:04.532Z,26.95
2022-08-09T08:09:00.564Z,26.77
2022-08-09T08:12:24.166Z,26.08
2022-08-09T08:14:06.748Z,25.20
2022-08-09T08:16:34.705Z,26.50
2022-08-09T08:19:03.124Z,25.90
2022-08-09T08:21:31.305Z,27.48
2022-08-09T08:24:01.099Z,26.75
2022-08-09T08:26:42.147Z,27.35
2022-08-09T08:29:27.858Z,27.65
2022-08-09T08:32:03.986Z,26.15
2022-08-09T08:34:34.316Z,26.40
2022-08-09T08:37:02.255Z,26.70
2022-08-09T08:39:29.125Z,26.58
2022-08-09T08:42:07.272Z,25.98
2022-08-09T08:44:37.942Z,26.92
2022-08-09T08:47:12.911Z,26.90
2022-08-09T08:49:46.665Z,27.52
2022-08-09T08:55:15.152Z,27.45
2022-08-09T08:57:57.174Z,27.88
2022-08-09T09:00:30.543Z,27.95
2022-08-09T09:03:12.323Z,28.42
2022-08-09T09:05:58.397Z,27.27
2022-08-09T09:08:40.437Z,28.10
2022-08-09T09:11:17.164Z,27.38
2022-08-09T09:13:55.735Z,28.05
2022-08-09T09:16:34.487Z,28.48
2022-08-09T09:21:59.222Z,26.75
2022-08-09T09:24:29.333Z,26.85
2022-08-09T09:26:59.267Z,28.17
2022-08-09T09:29:45.976Z,28.10
2022-08-09T09:32:34.355Z,28.40
2022-08-09T09:35:10.803Z,28.92
2022-08-09T09:37:45.509Z,28.08
2022-08-09T09:40:13.051Z,28.67
2022-08-09T09:42:43.014Z,27.25
2022-08-09T09:45:14.260Z,27.67
2022-08-09T09:47:56.401Z,28.17
2022-08-09T09:50:51.020Z,28.42
2022-08-09T09:53:44.033Z,27.92
2022-08-09T09:56:30.921Z,27.55
2022-08-09T09:58:59.522Z,29.52
2022-08-09T10:01:31.073Z,28.40
2022-08-09T10:04:15.978Z,29.05
2022-08-09T10:06:51.990Z,29.15
2022-08-09T10:09:23.820Z,29.35
2022-08-09T10:12:14.355Z,30.33
2022-08-09T10:14:48.743Z,29.27
2022-08-09T10:17:39.509Z,30.58
2022-08-09T10:20:44.517Z,30.25
2022-08-09T10:23:22.024Z,31.20
2022-08-09T10:26:06.553Z,30.15
2022-08-09T10:28:37.360Z,29.60
2022-08-09T10:34:11.399Z,30.17
2022-08-09T10:36:39.867Z,31.52
2022-08-09T10:39:15.567Z,30.45
2022-08-09T10:42:10.256Z,32.00
2022-08-09T10:44:39.920Z,31.90
2022-08-09T10:48:20.413Z,31.00
2022-08-09T10:51:09.216Z,31.02
2022-08-09T10:54:06.341Z,31.10
2022-08-09T10:56:41.021Z,33.35
2022-08-09T10:59:23.325Z,32.22
2022-08-09T11:03:16.003Z,32.28
2022-08-09T11:05:13.779Z,33.58
2022-08-09T11:07:57.671Z,33.08
2022-08-09T11:10:47.080Z,32.95
2022-08-09T11:13:51.147Z,32.92
2022-08-09T11:16:34.849Z,33.47
2022-08-09T11:19:09.282Z,33.60
2022-08-09T11:21:55.001Z,33.83
2022-08-09T11:28:03.002Z,33.17
2022-08-09T11:30:32.688Z,32.75
2022-08-09T11:33:05.720Z,32.90
2022-08-09T11:35:57.647Z,34.10
2022-08-09T11:38:34.068Z,34.63
2022-08-09T11:41:12.951Z,32.60
2022-08-09T11:43:43.462Z,33.80
2022-08-09T11:46:10.947Z,32.47
2022-08-09T11:48:52.154Z,33.22
2022-08-09T11:53:03.966Z,33.75
2022-08-09T11:54:28.882Z,30.95
2022-08-09T11:58:00.102Z,33.03
2022-08-09T12:00:32.812Z,32.63
2022-08-09T12:05:48.942Z,33.22
2022-08-09T12:08:22.285Z,33.55
2022-08-09T12:10:57.787Z,32.63
2022-08-09T12:14:10.711Z,31.58
2022-08-09T12:16:37.447Z,31.73
2022-08-09T12:19:08.672Z,33.15
2022-08-09T12:21:50.487Z,32.40
2022-08-09T12:24:23.684Z,31.92
2022-08-09T12:29:12.463Z,31.65
2022-08-09T12:29:44.546Z,31.98
2022-08-09T12:32:26.481Z,31.23
2022-08-09T12:35:03.162Z,31.73
2022-08-09T12:37:49.633Z,32.15
2022-08-09T12:40:28.458Z,32.97
2022-08-09T12:42:57.126Z,32.67
2022-08-09T12:45:35.077Z,32.40
2022-08-09T12:48:19.840Z,33.45
2022-08-09T12:50:48.767Z,31.48
2022-08-09T12:53:41.223Z,34.00
2022-08-09T12:56:39.470Z,31.83
2022-08-09T12:59:13.829Z,32.28
2022-08-09T13:01:48.823Z,32.63
2022-08-09T13:04:36.293Z,31.95
2022-08-09T13:07:16.700Z,32.72
2022-08-09T13:09:55.938Z,30.35
2022-08-09T13:12:29.296Z,31.90
2022-08-09T13:15:07.383Z,32.47
2022-08-09T13:18:03.341Z,33.10
2022-08-09T13:20:37.660Z,32.03
2022-08-09T13:24:06.291Z,32.28
2022-08-09T13:26:38.426Z,32.40
2022-08-09T13:29:20.623Z,32.08
2022-08-09T13:32:17.772Z,30.98
2022-08-09T13:34:52.284Z,30.35
2022-08-09T13:37:51.297Z,29.77
2022-08-09T13:41:56.660Z,31.70
2022-08-09T13:42:59.417Z,31.95
2022-08-09T13:45:32.299Z,31.73
2022-08-09T13:48:17.123Z,31.75
2022-08-09T13:50:43.933Z,31.98
2022-08-09T13:53:10.792Z,31.33
2022-08-09T13:55:37.737Z,32.08
2022-08-09T13:58:05.262Z,32.05
2022-08-09T14:00:48.357Z,32.55
2022-08-09T14:04:02.602Z,32.40
2022-08-09T14:06:25.722Z,32.58
2022-08-09T14:08:54.136Z,33.05
2022-08-09T14:11:22.261Z,33.03
2022-08-09T14:14:23.035Z,32.85
2022-08-09T14:16:36.820Z,31.95
2022-08-09T14:19:04.007Z,33.13
2022-08-09T14:21:32.024Z,33.78
2022-08-09T14:24:01.281Z,33.83
2022-08-09T14:26:37.943Z,33.47
2022-08-09T14:30:15.192Z,34.38
2022-08-09T14:31:55.403Z,33.45
2022-08-09T14:34:32.261Z,33.78
2022-08-09T14:37:08.023Z,33.42
2022-08-09T14:39:47.491Z,32.97
2022-08-09T14:42:30.204Z,33.13
2022-08-09T14:46:40.386Z,33.30
2022-08-09T14:47:58.129Z,33.75
2022-08-09T14:50:34.977Z,31.52
2022-08-09T14:53:12.001Z,31.95
2022-08-09T14:55:42.176Z,33.13
2022-08-09T14:58:15.378Z,33.15
2022-08-09T15:00:42.598Z,32.33
2022-08-09T15:03:16.694Z,31.92
2022-08-09T15:05:50.235Z,30.48
2022-08-09T15:08:20.704Z,30.88
2022-08-09T15:11:00.838Z,29.80
2022-08-09T15:13:56.742Z,29.13
2022-08-09T15:16:22.222Z,30.13
2022-08-09T15:18:49.859Z,29.55
2022-08-09T15:21:55.135Z,31.52
2022-08-09T15:24:11.396Z,30.38
2022-08-09T15:26:45.896Z,31.55
2022-08-09T15:31:01.195Z,31.17
2022-08-09T15:31:59.976Z,30.13
2022-08-09T15:34:34.223Z,29.63
2022-08-09T15:37:03.809Z,30.20
2022-08-09T15:39:44.006Z,29.65
2022-08-09T15:42:18.888Z,31.08
2022-08-09T15:44:46.892Z,29.98
2022-08-09T15:47:14.488Z,30.90
2022-08-09T15:50:03.950Z,31.50
2022-08-09T15:52:34.827Z,30.83
2022-08-09T15:55:03.694Z,30.75
2022-08-09T15:57:34.694Z,30.40
2022-08-09T16:00:09.714Z,30.83
2022-08-09T16:02:41.834Z,30.75
2022-08-09T16:05:09.167Z,31.45
2022-08-09T16:07:39.632Z,30.83
2022-08-09T16:10:38.440Z,30.42
2022-08-09T16:13:00.549Z,30.65
2022-08-09T16:16:12.310Z,29.85
2022-08-09T16:18:14.739Z,29.92
2022-08-09T16:20:41.553Z,30.40
2022-08-09T16:23:12.545Z,30.20
2022-08-09T16:25:40.789Z,30.52
2022-08-09T16:28:08.321Z,30.27
2022-08-09T16:30:40.961Z,30.05
2022-08-09T16:33:16.013Z,30.00
2022-08-09T16:35:55.988Z,30.75
2022-08-09T16:38:24.810Z,31.30
2022-08-09T16:40:52.154Z,30.88
2022-08-09T16:43:18.961Z,30.00
2022-08-09T16:45:53.388Z,29.58
2022-08-09T16:48:38.344Z,29.38
2022-08-09T16:51:13.796Z,31.42
2022-08-09T16:54:02.354Z,30.88
2022-08-09T16:56:30.851Z,30.85
2022-08-09T16:58:58.880Z,31.17
2022-08-09T17:01:26.096Z,30.08
2022-08-09T17:03:54.286Z,30.50
2022-08-09T17:06:29.098Z,31.50
2022-08-09T17:09:43.860Z,30.63
2022-08-09T17:11:52.433Z,30.00
2022-08-09T17:14:26.965Z,29.88
2022-08-09T17:17:01.529Z,30.25
2022-08-09T17:19:47.272Z,30.80
2022-08-09T17:22:23.821Z,31.77
2022-08-09T17:24:54.963Z,29.92
2022-08-09T17:27:22.821Z,31.00
2022-08-09T17:29:50.945Z,30.73
2022-08-09T17:32:20.388Z,29.17
2022-08-09T17:35:10.517Z,31.08
2022-08-09T17:38:11.325Z,31.15
2022-08-09T17:40:31.918Z,32.83
2022-08-09T17:43:11.262Z,33.15
2022-08-09T17:46:04.029Z,32.72
2022-08-09T17:48:35.330Z,33.25
2022-08-09T17:51:17.597Z,33.97
2022-08-09T17:53:55.350Z,34.03
2022-08-09T17:56:29.080Z,34.53
2022-08-09T17:59:03.231Z,34.40
2022-08-09T18:02:03.430Z,34.53
2022-08-09T18:04:19.629Z,33.53
2022-08-09T18:06:49.793Z,32.75
2022-08-09T18:09:22.806Z,33.10
2022-08-09T18:12:05.334Z,30.08
2022-08-09T18:14:49.479Z,28.00
2022-08-09T18:18:01.699Z,28.85
2022-08-09T18:20:54.131Z,29.17
2022-08-09T18:22:55.345Z,27.92
2022-08-09T18:25:52.306Z,27.30
2022-08-09T18:28:18.994Z,27.85
2022-08-09T18:30:57.313Z,27.65
2022-08-09T18:33:24.293Z,26.83
2022-08-09T18:36:00.198Z,27.75
2022-08-09T18:38:28.322Z,26.90
2022-08-09T18:40:55.519Z,27.92
2022-08-09T18:43:23.399Z,26.70
2022-08-09T18:46:50.611Z,28.13
2022-08-09T18:48:38.226Z,27.70
2022-08-09T18:51:09.446Z,24.85
2022-08-09T18:53:56.639Z,25.45
2022-08-09T18:56:27.180Z,24.17
2022-08-09T18:58:56.912Z,24.13
2022-08-09T19:01:25.443Z,25.02
2022-08-09T19:04:06.380Z,24.67
2022-08-09T19:06:38.761Z,25.45
2022-08-09T19:09:07.633Z,25.02
2022-08-09T19:11:38.010Z,24.60
2022-08-09T19:14:06.817Z,24.75
2022-08-09T19:16:36.368Z,24.45
2022-08-09T19:19:25.195Z,25.23
2022-08-09T19:21:52.267Z,26.75
2022-08-09T19:25:09.171Z,24.77
2022-08-09T19:27:22.123Z,24.25
2022-08-09T19:30:23.105Z,24.48
2022-08-09T19:32:36.725Z,25.45
2022-08-09T19:35:04.517Z,24.63
2022-08-09T19:37:41.102Z,24.52
2022-08-09T19:40:21.302Z,25.08
2022-08-09T19:42:49.654Z,27.58
2022-08-09T19:45:18.916Z,25.52
2022-08-09T19:47:47.389Z,24.30
2022-08-09T19:50:51.184Z,25.05
2022-08-09T19:53:04.388Z,24.58
2022-08-09T19:55:52.952Z,25.15
2022-08-09T19:58:29.730Z,25.10
2022-08-09T20:00:57.766Z,24.55
2022-08-09T20:04:10.708Z,24.92
2022-08-09T20:06:23.428Z,25.48
2022-08-09T20:08:56.685Z,25.35
2022-08-09T20:11:26.549Z,24.77
2022-08-09T20:13:55.248Z,24.05
2022-08-09T20:16:33.755Z,25.02
2022-08-09T20:19:49.001Z,25.05
2022-08-09T20:21:56.225Z,24.02
2022-08-09T20:24:31.822Z,25.42
2022-08-09T20:27:02.668Z,25.80
2022-08-09T20:29:37.802Z,24.38
2022-08-09T20:32:30.808Z,23.67
2022-08-09T20:34:53.887Z,25.20
2022-08-09T20:37:21.548Z,24.48
2022-08-09T20:40:15.847Z,24.73
2022-08-09T20:42:37.741Z,24.27
2022-08-09T20:45:59.543Z,24.05
2022-08-09T20:47:54.172Z,23.48
2022-08-09T20:50:47.730Z,23.02
2022-08-09T20:53:18.776Z,23.30
2022-08-09T20:56:00.609Z,23.50
2022-08-09T20:58:32.824Z,23.92
2022-08-09T21:01:32.282Z,22.30
2022-08-09T21:05:48.298Z,22.88
2022-08-09T21:06:36.232Z,24.15
2022-08-09T21:09:03.571Z,23.05
2022-08-09T21:14:17.559Z,23.20
2022-08-09T21:16:45.823Z,23.63
2022-08-09T21:20:18.395Z,22.65
2022-08-09T21:22:00.196Z,23.02
2022-08-09T21:24:32.590Z,24.15
2022-08-09T21:27:01.052Z,23.25
2022-08-09T21:29:49.585Z,22.60
2022-08-09T21:32:18.822Z,23.08
2022-08-09T21:34:49.117Z,23.23
2022-08-09T21:37:18.039Z,22.67
2022-08-09T21:39:45.296Z,22.05
2022-08-09T21:42:17.640Z,22.23
2022-08-09T21:44:55.576Z,22.65
2022-08-09T21:47:22.393Z,23.05
2022-08-09T21:49:49.545Z,23.17
2022-08-09T21:52:20.576Z,22.17
2022-08-09T21:54:49.468Z,23.05
2022-08-09T21:57:37.828Z,23.35
2022-08-09T22:00:10.150Z,23.08
2022-08-09T22:02:40.295Z,22.73
2022-08-09T22:05:22.818Z,22.73
2022-08-09T22:07:53.415Z,22.73
2022-08-09T22:10:23.284Z,23.02
2022-08-09T22:12:52.213Z,23.50
2022-08-09T22:15:20.651Z,23.55
2022-08-09T22:17:50.166Z,21.85
2022-08-09T22:20:21.837Z,22.45
2022-08-09T22:22:54.614Z,23.13
2022-08-09T22:26:05.282Z,21.48
2022-08-09T22:28:08.149Z,22.70
2022-08-09T22:30:34.885Z,21.75
2022-08-09T22:33:09.421Z,21.48
2022-08-09T22:36:01.653Z,22.02
2022-08-09T22:38:23.750Z,21.80
2022-08-09T22:40:57.877Z,21.80
2022-08-09T22:44:01.496Z,22.02
2022-08-09T22:48:10.455Z,22.17
2022-08-09T22:49:05.488Z,21.45
2022-08-09T22:51:38.517Z,22.15
2022-08-09T22:54:07.985Z,21.30
2022-08-09T22:56:38.153Z,23.33
2022-08-09T22:59:58.224Z,21.20
2022-08-09T23:01:55.316Z,21.60
2022-08-09T23:04:22.379Z,21.83
2022-08-09T23:07:10.924Z,21.70
2022-08-09T23:09:39.118Z,21.10
2022-08-09T23:12:06.015Z,20.95
2022-08-09T23:14:42.387Z,21.30
2022-08-09T23:17:10.633Z,21.88
2022-08-09T23:20:06.186Z,22.20
2022-08-09T23:22:27.261Z,21.23
2022-08-09T23:24:53.946Z,21.73
2022-08-09T23:27:20.749Z,21.98
2022-08-09T23:29:47.684Z,21.60
2022-08-09T23:32:14.523Z,21.17
2022-08-09T23:34:41.217Z,22.92
2022-08-09T23:37:08.419Z,22.20
2022-08-09T23:39:35.259Z,21.45
2022-08-09T23:42:02.096Z,21.10
2022-08-09T23:44:28.809Z,21.70
2022-08-09T23:46:57.378Z,21.60
2022-08-09T23:49:25.389Z,22.08
2022-08-09T23:51:53.364Z,21.90
2022-08-09T23:54:20.980Z,22.13
2022-08-09T23:56:55.873Z,21.55
2022-08-09T23:59:24.331Z,22.02
